createdAt,value
2023-01-20T00:02:02.945Z,2.03
2023-01-20T00:04:34.468Z,2.07
2023-01-20T00:07:06.350Z,2.05
2023-01-20T00:09:37.864Z,2.20
2023-01-20T00:12:09.656Z,2.22
2023-01-20T00:14:41.271Z,2.10
2023-01-20T00:17:13.131Z,2.65
2023-01-20T00:19:44.659Z,1.40
2023-01-20T00:22:16.647Z,2.78
2023-01-20T00:24:48.207Z,1.65
2023-01-20T00:27:20.562Z,2.40
2023-01-20T00:29:52.145Z,1.60
2023-01-20T00:32:23.667Z,2.35
2023-01-20T00:34:55.168Z,2.13
2023-01-20T00:37:26.808Z,2.58
2023-01-20T00:39:58.321Z,1.80
2023-01-20T00:42:30.212Z,1.70
2023-01-20T00:45:01.769Z,2.30
2023-01-20T00:47:33.578Z,3.28
2023-01-20T00:50:05.074Z,2.30
2023-01-20T00:52:36.897Z,1.63
2023-01-20T00:55:08.410Z,2.20
2023-01-20T00:57:40.277Z,2.40
2023-01-20T01:00:11.793Z,2.97
2023-01-20T01:02:43.622Z,2.08
2023-01-20T01:05:15.400Z,1.50
2023-01-20T01:07:47.276Z,2.07
2023-01-20T01:10:18.787Z,2.13
2023-01-20T01:12:50.637Z,1.73
2023-01-20T01:15:22.223Z,1.73
2023-01-20T01:17:54.001Z,1.73
2023-01-20T01:20:25.515Z,1.98
2023-01-20T01:22:57.445Z,1.92
2023-01-20T01:25:28.964Z,1.85
2023-01-20T01:28:01.022Z,2.20
2023-01-20T01:30:32.568Z,2.65
2023-01-20T01:33:04.429Z,2.05
2023-01-20T01:35:35.945Z,2.80
2023-01-20T01:38:07.780Z,2.85
2023-01-20T01:40:39.371Z,1.93
2023-01-20T01:43:11.196Z,1.60
2023-01-20T01:45:42.741Z,1.43
2023-01-20T01:48:14.645Z,1.27
2023-01-20T01:50:46.154Z,1.90
2023-01-20T01:53:17.973Z,2.42
2023-01-20T01:55:49.543Z,2.73
2023-01-20T01:58:22.921Z,2.25
2023-01-20T02:00:54.512Z,1.55
2023-01-20T02:03:26.400Z,0.98
2023-01-20T02:05:57.900Z,1.87
2023-01-20T02:08:29.863Z,2.00
2023-01-20T02:11:01.373Z,1.70
2023-01-20T02:13:33.241Z,1.50
2023-01-20T02:16:04.760Z,1.40
2023-01-20T02:18:36.675Z,2.70
2023-01-20T02:21:08.213Z,2.47
2023-01-20T02:23:40.076Z,1.85
2023-01-20T02:26:11.603Z,1.50
2023-01-20T02:28:43.283Z,1.55
2023-01-20T02:31:14.826Z,2.15
2023-01-20T02:33:46.642Z,1.20
2023-01-20T02:36:18.146Z,2.07
2023-01-20T02:38:49.988Z,1.25
2023-01-20T02:41:21.487Z,2.17
2023-01-20T02:43:53.010Z,1.73
2023-01-20T02:46:24.500Z,1.27
2023-01-20T02:48:56.436Z,1.50
2023-01-20T02:51:27.907Z,1.13
2023-01-20T02:53:59.736Z,2.25
2023-01-20T02:56:31.222Z,1.27
2023-01-20T02:59:03.076Z,0.73
2023-01-20T03:01:34.661Z,1.67
2023-01-20T03:04:06.403Z,1.83
2023-01-20T03:06:38.008Z,1.77
2023-01-20T03:09:09.577Z,1.98
2023-01-20T03:11:41.074Z,1.27
2023-01-20T03:14:12.939Z,2.22
2023-01-20T03:16:48.153Z,1.60
2023-01-20T03:19:20.619Z,1.63
2023-01-20T03:21:52.251Z,1.23
2023-01-20T03:24:24.112Z,2.35
2023-01-20T03:26:55.608Z,2.33
2023-01-20T03:29:27.508Z,2.03
2023-01-20T03:31:59.054Z,2.27
2023-01-20T03:34:30.559Z,2.78
2023-01-20T03:37:02.097Z,2.03
2023-01-20T03:39:34.090Z,1.50
2023-01-20T03:42:08.706Z,2.08
2023-01-20T03:44:40.593Z,2.90
2023-01-20T03:47:12.355Z,2.72
2023-01-20T03:49:44.300Z,2.75
2023-01-20T03:52:15.858Z,1.70
2023-01-20T03:54:47.694Z,3.03
2023-01-20T03:57:19.194Z,3.50
2023-01-20T03:59:50.697Z,2.45
2023-01-20T04:02:22.309Z,1.75
2023-01-20T04:04:54.222Z,2.22
2023-01-20T04:07:25.795Z,2.53
2023-01-20T04:09:57.732Z,1.88
2023-01-20T04:12:29.226Z,2.70
2023-01-20T04:15:01.045Z,2.55
2023-01-20T04:17:32.597Z,2.80
2023-01-20T04:20:04.527Z,2.30
2023-01-20T04:22:36.014Z,2.33
2023-01-20T04:25:07.839Z,3.13
2023-01-20T04:27:39.349Z,1.73
2023-01-20T04:30:12.418Z,2.58
2023-01-20T04:32:43.923Z,2.72
2023-01-20T04:35:16.166Z,2.47
2023-01-20T04:37:48.311Z,2.47
2023-01-20T04:40:19.873Z,1.80
2023-01-20T04:42:51.757Z,3.47
2023-01-20T04:45:23.263Z,3.00
2023-01-20T04:47:55.125Z,2.85
2023-01-20T04:50:26.654Z,2.47
2023-01-20T04:55:51.245Z,2.63
2023-01-20T04:58:22.745Z,2.93
2023-01-20T05:00:54.583Z,3.83
2023-01-20T05:03:26.404Z,3.40
2023-01-20T05:05:57.902Z,3.27
2023-01-20T05:08:29.836Z,4.10
2023-01-20T05:11:01.332Z,3.03
2023-01-20T05:13:34.010Z,3.63
2023-01-20T05:18:37.404Z,1.45
2023-01-20T05:21:09.055Z,3.57
2023-01-20T05:23:40.881Z,3.72
2023-01-20T05:26:12.573Z,3.03
2023-01-20T05:28:44.397Z,3.92
2023-01-20T05:31:16.045Z,3.67
2023-01-20T05:33:47.829Z,3.33
2023-01-20T05:36:19.346Z,3.30
2023-01-20T05:38:51.175Z,3.35
2023-01-20T05:41:22.683Z,2.97
2023-01-20T05:43:54.215Z,2.03
2023-01-20T05:46:25.726Z,2.50
2023-01-20T05:48:57.596Z,2.03
2023-01-20T05:51:29.224Z,3.57
2023-01-20T05:54:01.049Z,3.38
2023-01-20T05:56:32.542Z,2.07
2023-01-20T05:59:06.576Z,3.08
2023-01-20T06:01:38.143Z,3.30
2023-01-20T06:04:10.255Z,3.22
2023-01-20T06:06:41.801Z,3.80
2023-01-20T06:09:13.344Z,2.72
2023-01-20T06:11:44.895Z,2.38
2023-01-20T06:14:16.505Z,3.63
2023-01-20T06:16:48.028Z,2.63
2023-01-20T06:19:19.887Z,3.05
2023-01-20T06:21:53.477Z,2.03
2023-01-20T06:24:25.383Z,3.20
2023-01-20T06:26:56.917Z,1.90
2023-01-20T06:29:28.735Z,3.38
2023-01-20T06:32:00.281Z,2.37
2023-01-20T06:34:32.266Z,3.50
2023-01-20T06:37:03.842Z,3.20
2023-01-20T06:39:35.733Z,2.58
2023-01-20T06:42:07.288Z,3.80
2023-01-20T06:44:39.252Z,2.80
2023-01-20T06:47:10.743Z,2.83
2023-01-20T06:49:42.555Z,2.35
2023-01-20T06:52:14.073Z,3.53
2023-01-20T06:54:45.864Z,3.22
2023-01-20T06:57:17.348Z,3.00
2023-01-20T06:59:49.221Z,3.97
2023-01-20T07:02:20.733Z,2.23
2023-01-20T07:07:45.750Z,1.63
2023-01-20T07:10:17.618Z,2.65
2023-01-20T07:12:49.138Z,3.03
2023-01-20T07:15:20.962Z,2.45
2023-01-20T07:17:52.433Z,2.70
2023-01-20T07:20:24.125Z,2.70
2023-01-20T07:22:55.616Z,3.47
2023-01-20T07:25:27.435Z,2.67
2023-01-20T07:27:59.112Z,2.13
2023-01-20T07:30:30.920Z,3.75
2023-01-20T07:33:02.420Z,3.80
2023-01-20T07:35:34.172Z,3.58
2023-01-20T07:38:05.711Z,4.90
2023-01-20T07:40:37.489Z,4.03
2023-01-20T07:43:09.028Z,4.97
2023-01-20T07:45:40.975Z,2.83
2023-01-20T07:48:12.516Z,2.85
2023-01-20T07:50:44.484Z,4.32
2023-01-20T07:53:15.986Z,2.72
2023-01-20T07:55:47.800Z,3.70
2023-01-20T07:58:19.296Z,4.20
2023-01-20T08:00:51.412Z,2.42
2023-01-20T08:03:22.909Z,3.78
2023-01-20T08:05:54.663Z,3.00
2023-01-20T08:08:26.161Z,3.50
2023-01-20T08:10:58.629Z,3.63
2023-01-20T08:13:30.165Z,4.13
2023-01-20T08:16:01.668Z,4.72
2023-01-20T08:18:33.160Z,5.03
2023-01-20T08:21:08.260Z,3.05
2023-01-20T08:23:39.867Z,3.80
2023-01-20T08:26:11.753Z,4.35
2023-01-20T08:28:43.327Z,3.93
2023-01-20T08:31:15.405Z,3.72
2023-01-20T08:33:47.105Z,4.20
2023-01-20T08:36:18.911Z,3.20
2023-01-20T08:38:50.424Z,4.20
2023-01-20T08:41:22.387Z,3.60
2023-01-20T08:43:53.904Z,3.95
2023-01-20T08:46:25.864Z,2.85
2023-01-20T08:48:57.415Z,3.53
2023-01-20T08:51:29.374Z,3.65
2023-01-20T08:54:00.901Z,3.15
2023-01-20T08:56:34.294Z,4.35
2023-01-20T08:59:05.818Z,4.60
2023-01-20T09:01:38.363Z,4.03
2023-01-20T09:04:09.905Z,3.50
2023-01-20T09:06:41.797Z,4.70
2023-01-20T09:09:13.297Z,4.73
2023-01-20T09:11:51.436Z,4.47
2023-01-20T09:14:23.125Z,4.20
2023-01-20T09:16:54.968Z,5.88
2023-01-20T09:19:26.469Z,3.10
2023-01-20T09:21:58.090Z,4.55
2023-01-20T09:24:29.655Z,3.17
2023-01-20T09:27:01.699Z,3.35
2023-01-20T09:29:33.339Z,5.00
2023-01-20T09:32:04.910Z,4.90
2023-01-20T09:34:36.528Z,4.97
2023-01-20T09:37:27.363Z,4.05
2023-01-20T09:40:18.186Z,5.30
2023-01-20T09:43:08.225Z,3.10
2023-01-20T09:45:39.737Z,3.75
2023-01-20T09:48:14.987Z,2.85
2023-01-20T09:51:05.620Z,3.30
2023-01-20T09:53:37.182Z,4.40
2023-01-20T09:56:08.930Z,3.60
2023-01-20T09:58:40.429Z,4.03
2023-01-20T10:01:12.337Z,3.50
2023-01-20T10:03:43.923Z,4.80
2023-01-20T10:06:16.492Z,4.03
2023-01-20T10:09:04.142Z,3.10
2023-01-20T10:11:37.167Z,3.47
2023-01-20T10:14:08.822Z,3.23
2023-01-20T10:16:40.751Z,3.00
2023-01-20T10:19:12.244Z,3.40
2023-01-20T10:21:44.202Z,4.82
2023-01-20T10:24:15.703Z,5.37
2023-01-20T10:26:47.534Z,4.53
2023-01-20T10:29:20.098Z,4.97
2023-01-20T10:31:51.998Z,5.15
2023-01-20T10:34:23.601Z,4.57
2023-01-20T10:36:56.439Z,3.95
2023-01-20T10:41:59.760Z,4.68
2023-01-20T10:44:31.240Z,4.13
2023-01-20T10:47:03.081Z,5.10
2023-01-20T10:49:34.582Z,5.15
2023-01-20T10:52:06.425Z,4.30
2023-01-20T10:54:37.942Z,4.25
2023-01-20T10:57:09.818Z,5.22
2023-01-20T10:59:41.278Z,4.43
2023-01-20T11:02:13.143Z,4.03
2023-01-20T11:04:44.641Z,6.00
2023-01-20T11:07:16.524Z,5.18
2023-01-20T11:09:48.699Z,4.10
2023-01-20T11:12:20.449Z,6.28
2023-01-20T11:14:51.979Z,3.90
2023-01-20T11:17:23.938Z,4.18
2023-01-20T11:19:55.484Z,4.70
2023-01-20T11:22:27.385Z,4.32
2023-01-20T11:24:58.969Z,4.27
2023-01-20T11:27:30.780Z,4.32
2023-01-20T11:30:02.453Z,5.28
2023-01-20T11:32:34.208Z,3.90
2023-01-20T11:35:05.729Z,3.78
2023-01-20T11:37:37.804Z,4.30
2023-01-20T11:40:09.313Z,4.78
2023-01-20T11:42:41.133Z,4.13
2023-01-20T11:45:21.221Z,4.22
2023-01-20T11:47:53.497Z,5.13
2023-01-20T11:50:25.082Z,3.13
2023-01-20T11:52:57.154Z,4.65
2023-01-20T11:55:28.699Z,3.97
2023-01-20T11:58:00.567Z,4.03
2023-01-20T12:00:32.085Z,3.43
2023-01-20T12:03:03.968Z,3.47
2023-01-20T12:05:35.544Z,4.47
2023-01-20T12:08:07.513Z,4.43
2023-01-20T12:10:39.030Z,3.93
2023-01-20T12:13:10.932Z,3.60
2023-01-20T12:15:42.434Z,3.80
2023-01-20T12:18:14.313Z,3.65
2023-01-20T12:20:55.015Z,5.27
2023-01-20T12:23:34.259Z,3.80
2023-01-20T12:26:05.757Z,3.63
2023-01-20T12:28:37.630Z,3.17
2023-01-20T12:31:09.157Z,4.77
2023-01-20T12:33:41.065Z,3.55
2023-01-20T12:36:12.743Z,4.93
2023-01-20T12:38:44.310Z,5.22
2023-01-20T12:41:16.155Z,2.97
2023-01-20T12:43:47.707Z,3.92
2023-01-20T12:46:19.760Z,3.83
2023-01-20T12:48:51.346Z,3.83
2023-01-20T12:51:23.229Z,3.75
2023-01-20T12:53:56.230Z,3.13
2023-01-20T12:56:29.047Z,3.45
2023-01-20T13:01:32.497Z,3.47
2023-01-20T13:04:04.061Z,3.07
2023-01-20T13:06:36.308Z,3.45
2023-01-20T13:09:07.928Z,4.00
2023-01-20T13:11:39.764Z,3.90
2023-01-20T13:14:11.981Z,3.17
2023-01-20T13:16:44.065Z,3.88
2023-01-20T13:19:15.656Z,3.55
2023-01-20T13:21:59.394Z,3.63
2023-01-20T13:24:38.248Z,3.05
2023-01-20T13:27:11.058Z,3.55
2023-01-20T13:32:14.847Z,3.17
2023-01-20T13:34:46.405Z,3.37
2023-01-20T13:37:18.247Z,3.70
2023-01-20T13:39:49.749Z,4.22
2023-01-20T13:42:21.673Z,4.18
2023-01-20T13:44:53.178Z,3.60
2023-01-20T13:47:25.221Z,4.10
2023-01-20T13:49:56.783Z,3.75
2023-01-20T13:52:28.634Z,3.72
2023-01-20T13:55:00.157Z,3.90
2023-01-20T13:57:31.723Z,4.93
2023-01-20T14:00:03.237Z,4.35
2023-01-20T14:02:35.183Z,3.35
2023-01-20T14:05:06.713Z,4.00
2023-01-20T14:07:38.536Z,3.67
2023-01-20T14:10:10.122Z,3.22
2023-01-20T14:12:42.062Z,3.22
2023-01-20T14:15:13.627Z,4.00
2023-01-20T14:17:45.535Z,4.63
2023-01-20T14:20:17.332Z,3.80
2023-01-20T14:22:49.559Z,3.80
2023-01-20T14:25:21.068Z,3.78
2023-01-20T14:27:52.935Z,2.88
2023-01-20T14:30:24.584Z,3.63
2023-01-20T14:32:56.162Z,3.55
2023-01-20T14:35:28.012Z,3.67
2023-01-20T14:37:59.900Z,4.30
2023-01-20T14:40:31.421Z,3.67
2023-01-20T14:43:03.349Z,3.47
2023-01-20T14:45:34.885Z,3.13
2023-01-20T14:48:06.807Z,3.15
2023-01-20T14:50:38.573Z,3.50
2023-01-20T14:53:10.531Z,3.80
2023-01-20T14:55:44.303Z,4.40
2023-01-20T14:58:16.079Z,3.50
2023-01-20T15:00:47.634Z,4.28
2023-01-20T15:03:19.557Z,4.28
2023-01-20T15:05:51.408Z,3.40
2023-01-20T15:08:25.957Z,2.70
2023-01-20T15:10:57.977Z,3.88
2023-01-20T15:13:31.541Z,3.65
2023-01-20T15:16:03.099Z,2.92
2023-01-20T15:18:34.674Z,3.53
2023-01-20T15:21:16.638Z,3.53
2023-01-20T15:23:52.632Z,3.20
2023-01-20T15:26:24.254Z,3.47
2023-01-20T15:28:55.915Z,4.57
2023-01-20T15:31:27.513Z,3.65
2023-01-20T15:33:59.450Z,2.58
2023-01-20T15:36:33.117Z,3.87
2023-01-20T15:39:04.684Z,3.97
2023-01-20T15:41:36.245Z,3.30
2023-01-20T15:44:08.106Z,4.22
2023-01-20T15:46:39.750Z,4.20
2023-01-20T15:49:11.760Z,2.95
2023-01-20T15:51:43.289Z,5.15
2023-01-20T15:54:15.042Z,3.08
2023-01-20T15:56:46.578Z,4.60
2023-01-20T15:59:18.554Z,3.50
2023-01-20T16:01:50.619Z,4.07
2023-01-20T16:04:22.269Z,3.38
2023-01-20T16:06:53.849Z,2.95
2023-01-20T16:09:25.681Z,3.92
2023-01-20T16:11:57.315Z,3.67
2023-01-20T16:14:28.893Z,4.30
2023-01-20T16:17:00.459Z,2.65
2023-01-20T16:19:32.318Z,4.13
2023-01-20T16:22:03.880Z,3.83
2023-01-20T16:24:35.510Z,4.43
2023-01-20T16:27:07.080Z,3.70
2023-01-20T16:29:39.052Z,4.57
2023-01-20T16:32:10.607Z,4.07
2023-01-20T16:34:42.803Z,3.45
2023-01-20T16:37:14.469Z,4.82
2023-01-20T16:39:46.012Z,4.50
2023-01-20T16:42:17.634Z,2.63
2023-01-20T16:44:49.211Z,4.47
2023-01-20T16:47:20.718Z,4.90
2023-01-20T16:49:52.548Z,3.83
2023-01-20T16:52:24.915Z,3.87
2023-01-20T16:54:56.526Z,3.75
2023-01-20T16:57:28.535Z,4.07
2023-01-20T17:00:00.153Z,4.63
2023-01-20T17:02:32.130Z,2.40
2023-01-20T17:05:03.699Z,3.75
2023-01-20T17:07:35.567Z,4.15
2023-01-20T17:10:07.090Z,4.50
2023-01-20T17:12:39.137Z,5.50
2023-01-20T17:15:10.735Z,3.88
2023-01-20T17:17:42.859Z,4.45
2023-01-20T17:20:14.677Z,3.30
2023-01-20T17:22:46.752Z,4.80
2023-01-20T17:25:18.258Z,3.60
2023-01-20T17:27:49.839Z,5.07
2023-01-20T17:30:21.577Z,5.65
2023-01-20T17:32:54.124Z,5.60
2023-01-20T17:35:25.694Z,3.60
2023-01-20T17:37:57.679Z,3.28
2023-01-20T17:40:29.281Z,4.70
2023-01-20T17:43:01.217Z,6.32
2023-01-20T17:45:32.855Z,4.55
2023-01-20T17:48:04.852Z,4.45
2023-01-20T17:50:36.474Z,3.90
2023-01-20T17:53:08.432Z,5.15
2023-01-20T17:55:39.968Z,4.65
2023-01-20T17:58:11.935Z,4.88
2023-01-20T18:00:43.482Z,3.80
2023-01-20T18:03:15.406Z,5.40
2023-01-20T18:05:46.979Z,4.25
2023-01-20T18:08:18.573Z,4.40
2023-01-20T18:10:50.128Z,5.32
2023-01-20T18:13:21.977Z,5.03
2023-01-20T18:15:53.526Z,4.17
2023-01-20T18:18:25.584Z,3.42
2023-01-20T18:20:59.221Z,4.65
2023-01-20T18:23:31.053Z,4.78
2023-01-20T18:26:02.606Z,4.97
2023-01-20T18:28:34.502Z,4.85
2023-01-20T18:31:09.026Z,3.73
2023-01-20T18:33:44.524Z,5.07
2023-01-20T18:36:16.239Z,4.93
2023-01-20T18:38:48.095Z,5.28
2023-01-20T18:41:19.682Z,4.20
2023-01-20T18:43:51.612Z,3.55
2023-01-20T18:46:23.155Z,4.20
2023-01-20T18:48:55.693Z,6.65
2023-01-20T18:51:27.293Z,2.95
2023-01-20T18:53:59.488Z,3.65
2023-01-20T18:56:31.059Z,5.65
2023-01-20T18:59:02.999Z,5.70
2023-01-20T19:01:34.635Z,4.50
2023-01-20T19:04:06.231Z,3.25
2023-01-20T19:06:37.817Z,4.13
2023-01-20T19:09:09.356Z,3.75
2023-01-20T19:11:40.955Z,3.33
2023-01-20T19:14:13.079Z,3.93
2023-01-20T19:16:49.440Z,4.03
2023-01-20T19:19:21.137Z,3.28
2023-01-20T19:21:52.842Z,3.25
2023-01-20T19:24:29.229Z,4.80
2023-01-20T19:27:00.943Z,3.80
2023-01-20T19:29:32.833Z,4.47
2023-01-20T19:32:04.362Z,3.97
2023-01-20T19:34:35.918Z,3.78
2023-01-20T19:37:07.576Z,3.97
2023-01-20T19:39:39.133Z,4.95
2023-01-20T19:42:10.716Z,4.68
2023-01-20T19:44:42.507Z,4.53
2023-01-20T19:47:14.101Z,4.27
2023-01-20T19:49:45.967Z,5.25
2023-01-20T19:52:17.512Z,3.87
2023-01-20T19:54:51.604Z,4.05
2023-01-20T19:57:23.450Z,3.05
2023-01-20T19:59:55.558Z,3.55
2023-01-20T20:02:27.558Z,4.32
2023-01-20T20:04:59.413Z,3.25
2023-01-20T20:07:30.969Z,3.13
2023-01-20T20:10:02.521Z,4.93
2023-01-20T20:12:34.091Z,2.40
2023-01-20T20:15:05.939Z,3.97
2023-01-20T20:17:37.438Z,5.20
2023-01-20T20:20:09.430Z,4.38
2023-01-20T20:22:41.097Z,2.83
2023-01-20T20:25:12.898Z,4.35
2023-01-20T20:27:44.495Z,6.03
2023-01-20T20:30:16.849Z,3.50
2023-01-20T20:32:48.741Z,3.08
2023-01-20T20:35:20.916Z,3.90
2023-01-20T20:37:52.456Z,3.70
2023-01-20T20:40:25.437Z,3.70
2023-01-20T20:42:57.041Z,4.35
2023-01-20T20:45:28.967Z,3.38
2023-01-20T20:48:00.502Z,4.43
2023-01-20T20:50:32.341Z,4.28
2023-01-20T20:53:03.900Z,3.43
2023-01-20T20:55:35.763Z,4.20
2023-01-20T20:58:07.272Z,3.83
2023-01-20T21:00:39.267Z,3.85
2023-01-20T21:03:11.104Z,2.67
2023-01-20T21:05:43.243Z,3.67
2023-01-20T21:08:14.825Z,2.97
2023-01-20T21:10:46.743Z,2.63
2023-01-20T21:13:18.250Z,4.45
2023-01-20T21:15:50.143Z,2.67
2023-01-20T21:18:21.760Z,2.95
2023-01-20T21:20:53.611Z,3.67
2023-01-20T21:23:25.148Z,3.50
2023-01-20T21:25:57.188Z,2.63
2023-01-20T21:28:28.786Z,2.92
2023-01-20T21:31:00.726Z,1.80
2023-01-20T21:33:32.228Z,3.00
2023-01-20T21:36:04.120Z,3.28
2023-01-20T21:38:35.643Z,4.30
2023-01-20T21:41:08.592Z,1.92
2023-01-20T21:43:59.279Z,2.22
2023-01-20T21:46:30.880Z,2.78
2023-01-20T21:49:21.650Z,1.42
2023-01-20T21:52:11.710Z,2.95
2023-01-20T21:54:45.593Z,1.48
2023-01-20T21:57:17.365Z,2.05
2023-01-20T21:59:49.043Z,3.33
2023-01-20T22:02:20.660Z,2.20
2023-01-20T22:04:52.196Z,2.92
2023-01-20T22:07:23.758Z,2.97
2023-01-20T22:09:58.022Z,2.33
2023-01-20T22:12:33.689Z,2.30
2023-01-20T22:15:05.665Z,2.50
2023-01-20T22:17:37.204Z,2.28
2023-01-20T22:20:09.029Z,2.83
2023-01-20T22:22:40.589Z,2.40
2023-01-20T22:25:12.441Z,2.13
2023-01-20T22:27:43.991Z,2.50
2023-01-20T22:30:16.151Z,1.75
2023-01-20T22:32:47.880Z,2.28
2023-01-20T22:35:19.427Z,3.13
2023-01-20T22:37:50.939Z,2.50
2023-01-20T22:40:22.495Z,0.95
2023-01-20T22:42:54.031Z,2.38
2023-01-20T22:45:25.886Z,1.73
2023-01-20T22:47:57.431Z,1.90
2023-01-20T22:50:29.420Z,1.95
2023-01-20T22:53:00.975Z,2.40
2023-01-20T22:55:32.753Z,1.73
2023-01-20T22:58:04.304Z,2.27
2023-01-20T23:00:36.176Z,1.15
2023-01-20T23:03:07.675Z,1.30
2023-01-20T23:05:40.969Z,1.10
2023-01-20T23:08:12.578Z,1.83
2023-01-20T23:10:47.259Z,2.25
2023-01-20T23:13:18.832Z,2.65
2023-01-20T23:15:50.362Z,2.22
2023-01-20T23:18:21.935Z,1.15
2023-01-20T23:20:53.937Z,1.98
2023-01-20T23:23:25.556Z,1.88
2023-01-20T23:25:57.122Z,1.25
2023-01-20T23:28:28.651Z,1.85
2023-01-20T23:31:00.649Z,1.48
2023-01-20T23:33:32.217Z,1.30
2023-01-20T23:36:03.778Z,1.88
2023-01-20T23:38:35.353Z,1.95
2023-01-20T23:41:07.219Z,1.90
2023-01-20T23:43:38.846Z,1.20
2023-01-20T23:46:10.692Z,0.75
2023-01-20T23:48:42.276Z,1.65
2023-01-20T23:51:14.229Z,1.20
2023-01-20T23:53:45.835Z,1.77
2023-01-20T23:56:17.810Z,1.90
2023-01-20T23:58:49.387Z,1.48
